sensor_id;sensor_type;location;lat;lon;timestamp;P1;durP1;ratioP1;P2;durP2;ratioP2
10440;SDS011;5268;49.346;9.522;2022-10-16T03:21:10;5.55;;;1.60;;
10440;SDS011;5268;49.346;9.522;2022-10-16T03:26:12;2.97;;;1.40;;
10440;SDS011;5268;49.346;9.522;2022-10-16T03:31:14;2.70;;;1.50;;
10440;SDS011;5268;49.346;9.522;2022-10-16T03:36:18;3.72;;;1.63;;
10440;SDS011;5268;49.346;9.522;2022-10-16T03:41:19;4.47;;;1.48;;
10440;SDS011;5268;49.346;9.522;2022-10-16T03:46:21;6.18;;;1.42;;
10440;SDS011;5268;49.346;9.522;2022-10-16T03:51:25;2.03;;;1.40;;
10440;SDS011;5268;49.346;9.522;2022-10-16T03:56:27;3.88;;;1.90;;
10440;SDS011;5268;49.346;9.522;2022-10-16T04:01:29;3.42;;;1.80;;
10440;SDS011;5268;49.346;9.522;2022-10-16T04:06:33;2.38;;;1.48;;
10440;SDS011;5268;49.346;9.522;2022-10-16T04:11:35;3.45;;;1.60;;
10440;SDS011;5268;49.346;9.522;2022-10-16T04:16:37;5.65;;;1.70;;
10440;SDS011;5268;49.346;9.522;2022-10-16T04:21:40;3.53;;;1.63;;
10440;SDS011;5268;49.346;9.522;2022-10-16T04:26:42;2.50;;;1.40;;
10440;SDS011;5268;49.346;9.522;2022-10-16T04:31:44;1.75;;;1.48;;
10440;SDS011;5268;49.346;9.522;2022-10-16T04:36:49;4.72;;;1.85;;
10440;SDS011;5268;49.346;9.522;2022-10-16T04:41:51;8.45;;;1.67;;
10440;SDS011;5268;49.346;9.522;2022-10-16T04:46:53;5.50;;;1.55;;
10440;SDS011;5268;49.346;9.522;2022-10-16T04:51:56;4.60;;;2.10;;
10440;SDS011;5268;49.346;9.522;2022-10-16T04:56:58;4.80;;;1.80;;
10440;SDS011;5268;49.346;9.522;2022-10-16T05:02:00;4.30;;;2.20;;
10440;SDS011;5268;49.346;9.522;2022-10-16T05:07:03;4.32;;;3.25;;
10440;SDS011;5268;49.346;9.522;2022-10-16T05:12:05;4.65;;;2.20;;
10440;SDS011;5268;49.346;9.522;2022-10-16T05:17:08;3.95;;;2.30;;
10440;SDS011;5268;49.346;9.522;2022-10-16T05:22:11;3.40;;;2.47;;
10440;SDS011;5268;49.346;9.522;2022-10-16T05:27:13;4.68;;;1.90;;
10440;SDS011;5268;49.346;9.522;2022-10-16T05:32:19;5.70;;;2.10;;
10440;SDS011;5268;49.346;9.522;2022-10-16T05:37:22;4.00;;;1.80;;
10440;SDS011;5268;49.346;9.522;2022-10-16T05:42:24;6.50;;;2.00;;
10440;SDS011;5268;49.346;9.522;2022-10-16T05:47:26;6.13;;;2.50;;
10440;SDS011;5268;49.346;9.522;2022-10-16T05:52:29;5.95;;;2.15;;
10440;SDS011;5268;49.346;9.522;2022-10-16T05:57:31;7.80;;;2.20;;
10440;SDS011;5268;49.346;9.522;2022-10-16T06:02:33;9.20;;;2.35;;
10440;SDS011;5268;49.346;9.522;2022-10-16T06:07:37;6.05;;;2.47;;
10440;SDS011;5268;49.346;9.522;2022-10-16T06:12:39;4.80;;;2.30;;
10440;SDS011;5268;49.346;9.522;2022-10-16T06:17:40;4.60;;;2.88;;
10440;SDS011;5268;49.346;9.522;2022-10-16T06:22:44;6.03;;;2.65;;
10440;SDS011;5268;49.346;9.522;2022-10-16T06:27:46;5.85;;;2.60;;
10440;SDS011;5268;49.346;9.522;2022-10-16T06:32:48;7.47;;;2.80;;
10440;SDS011;5268;49.346;9.522;2022-10-16T06:37:52;4.43;;;3.58;;
10440;SDS011;5268;49.346;9.522;2022-10-16T06:42:54;10.50;;;7.18;;
10440;SDS011;5268;49.346;9.522;2022-10-16T06:47:56;28.95;;;25.85;;
10440;SDS011;5268;49.346;9.522;2022-10-16T06:53:00;18.83;;;16.90;;
10440;SDS011;5268;49.346;9.522;2022-10-16T06:58:02;13.32;;;9.13;;
10440;SDS011;5268;49.346;9.522;2022-10-16T07:03:03;10.13;;;5.15;;
10440;SDS011;5268;49.346;9.522;2022-10-16T07:08:07;7.95;;;3.88;;
10440;SDS011;5268;49.346;9.522;2022-10-16T07:13:10;5.47;;;3.15;;
10440;SDS011;5268;49.346;9.522;2022-10-16T07:18:13;10.43;;;5.22;;
10440;SDS011;5268;49.346;9.522;2022-10-16T07:23:17;4.75;;;4.15;;
10440;SDS011;5268;49.346;9.522;2022-10-16T07:28:19;7.15;;;4.90;;
10440;SDS011;5268;49.346;9.522;2022-10-16T07:33:21;10.35;;;5.80;;
10440;SDS011;5268;49.346;9.522;2022-10-16T07:38:24;8.55;;;6.47;;
10440;SDS011;5268;49.346;9.522;2022-10-16T07:43:26;10.88;;;6.97;;
10440;SDS011;5268;49.346;9.522;2022-10-16T07:48:30;9.82;;;7.85;;
10440;SDS011;5268;49.346;9.522;2022-10-16T07:53:35;9.45;;;6.47;;
10440;SDS011;5268;49.346;9.522;2022-10-16T07:58:37;6.45;;;4.80;;
10440;SDS011;5268;49.346;9.522;2022-10-16T08:03:41;7.82;;;3.95;;
10440;SDS011;5268;49.346;9.522;2022-10-16T08:08:45;7.43;;;4.22;;
10440;SDS011;5268;49.346;9.522;2022-10-16T08:13:47;4.82;;;2.97;;
10440;SDS011;5268;49.346;9.522;2022-10-16T08:18:49;4.47;;;2.78;;
10440;SDS011;5268;49.346;9.522;2022-10-16T08:23:53;4.30;;;2.42;;
10440;SDS011;5268;49.346;9.522;2022-10-16T08:28:56;4.30;;;2.33;;
10440;SDS011;5268;49.346;9.522;2022-10-16T08:33:58;4.57;;;1.70;;
10440;SDS011;5268;49.346;9.522;2022-10-16T08:39:01;4.55;;;2.00;;
10440;SDS011;5268;49.346;9.522;2022-10-16T08:44:10;3.80;;;1.65;;
10440;SDS011;5268;49.346;9.522;2022-10-16T08:49:27;3.20;;;1.50;;
10440;SDS011;5268;49.346;9.522;2022-10-16T08:54:33;2.88;;;1.63;;
10440;SDS011;5268;49.346;9.522;2022-10-16T08:59:40;5.50;;;4.20;;
10440;SDS011;5268;49.346;9.522;2022-10-16T09:04:49;3.63;;;2.00;;
10440;SDS011;5268;49.346;9.522;2022-10-16T09:10:06;1.92;;;1.70;;
10440;SDS011;5268;49.346;9.522;2022-10-16T09:15:21;2.08;;;1.48;;
10440;SDS011;5268;49.346;9.522;2022-10-16T09:20:31;1.88;;;1.48;;
10440;SDS011;5268;49.346;9.522;2022-10-16T09:25:38;2.70;;;1.42;;
10440;SDS011;5268;49.346;9.522;2022-10-16T09:30:42;2.85;;;1.80;;
10440;SDS011;5268;49.346;9.522;2022-10-16T09:35:45;2.38;;;1.40;;
10440;SDS011;5268;49.346;9.522;2022-10-16T09:40:51;3.08;;;1.52;;
10440;SDS011;5268;49.346;9.522;2022-10-16T09:45:55;2.95;;;1.70;;
10440;SDS011;5268;49.346;9.522;2022-10-16T09:50:58;3.75;;;2.13;;
10440;SDS011;5268;49.346;9.522;2022-10-16T09:56:04;3.05;;;1.98;;
10440;SDS011;5268;49.346;9.522;2022-10-16T10:01:11;2.83;;;1.60;;
10440;SDS011;5268;49.346;9.522;2022-10-16T10:06:24;3.30;;;1.60;;
10440;SDS011;5268;49.346;9.522;2022-10-16T10:22:21;3.05;;;1.58;;
10440;SDS011;5268;49.346;9.522;2022-10-16T10:27:29;4.00;;;1.80;;
10440;SDS011;5268;49.346;9.522;2022-10-16T10:32:40;3.35;;;1.52;;
10440;SDS011;5268;49.346;9.522;2022-10-16T10:37:53;3.15;;;1.85;;
10440;SDS011;5268;49.346;9.522;2022-10-16T10:43:06;3.10;;;1.90;;
10440;SDS011;5268;49.346;9.522;2022-10-16T10:48:17;2.85;;;1.30;;
10440;SDS011;5268;49.346;9.522;2022-10-16T10:53:32;2.47;;;1.52;;
10440;SDS011;5268;49.346;9.522;2022-10-16T11:09:59;3.00;;;1.58;;
10440;SDS011;5268;49.346;9.522;2022-10-16T11:15:07;3.03;;;1.80;;
10440;SDS011;5268;49.346;9.522;2022-10-16T11:20:16;1.42;;;1.20;;
10440;SDS011;5268;49.346;9.522;2022-10-16T11:25:22;3.40;;;1.50;;
10440;SDS011;5268;49.346;9.522;2022-10-16T11:30:29;1.95;;;1.23;;
10440;SDS011;5268;49.346;9.522;2022-10-16T11:35:35;7.05;;;1.48;;
10440;SDS011;5268;49.346;9.522;2022-10-16T11:40:43;5.43;;;4.20;;
10440;SDS011;5268;49.346;9.522;2022-10-16T11:45:51;3.47;;;1.70;;
10440;SDS011;5268;49.346;9.522;2022-10-16T11:50:56;4.28;;;1.42;;
10440;SDS011;5268;49.346;9.522;2022-10-16T11:56:03;3.97;;;1.42;;
10440;SDS011;5268;49.346;9.522;2022-10-16T12:01:14;1.92;;;1.40;;
10440;SDS011;5268;49.346;9.522;2022-10-16T12:06:26;3.75;;;1.30;;
10440;SDS011;5268;49.346;9.522;2022-10-16T12:11:36;2.53;;;1.30;;
10440;SDS011;5268;49.346;9.522;2022-10-16T12:16:50;1.63;;;1.20;;
10440;SDS011;5268;49.346;9.522;2022-10-16T12:21:54;3.05;;;1.10;;
10440;SDS011;5268;49.346;9.522;2022-10-16T12:26:58;4.03;;;1.30;;
10440;SDS011;5268;49.346;9.522;2022-10-16T12:32:03;4.05;;;2.13;;
10440;SDS011;5268;49.346;9.522;2022-10-16T12:37:11;3.47;;;1.50;;
10440;SDS011;5268;49.346;9.522;2022-10-16T12:42:20;2.53;;;1.80;;
10440;SDS011;5268;49.346;9.522;2022-10-16T12:47:47;2.70;;;1.40;;
10440;SDS011;5268;49.346;9.522;2022-10-16T12:52:50;3.75;;;1.50;;
10440;SDS011;5268;49.346;9.522;2022-10-16T12:58:02;3.00;;;1.30;;
10440;SDS011;5268;49.346;9.522;2022-10-16T13:09:02;2.42;;;1.20;;
10440;SDS011;5268;49.346;9.522;2022-10-16T13:14:37;4.07;;;1.40;;
10440;SDS011;5268;49.346;9.522;2022-10-16T13:19:53;3.67;;;1.50;;
10440;SDS011;5268;49.346;9.522;2022-10-16T13:25:05;4.13;;;1.50;;
10440;SDS011;5268;49.346;9.522;2022-10-16T13:30:18;3.30;;;1.40;;
10440;SDS011;5268;49.346;9.522;2022-10-16T13:35:24;2.50;;;1.50;;
10440;SDS011;5268;49.346;9.522;2022-10-16T13:40:27;2.60;;;1.48;;
10440;SDS011;5268;49.346;9.522;2022-10-16T13:45:29;1.80;;;1.70;;
10440;SDS011;5268;49.346;9.522;2022-10-16T13:50:32;2.00;;;1.50;;
10440;SDS011;5268;49.346;9.522;2022-10-16T13:55:34;4.40;;;1.50;;
10440;SDS011;5268;49.346;9.522;2022-10-16T14:00:37;1.88;;;1.40;;
10440;SDS011;5268;49.346;9.522;2022-10-16T14:05:41;3.28;;;1.40;;
10440;SDS011;5268;49.346;9.522;2022-10-16T14:10:48;1.63;;;1.50;;
10440;SDS011;5268;49.346;9.522;2022-10-16T14:15:51;3.83;;;1.80;;
10440;SDS011;5268;49.346;9.522;2022-10-16T14:21:01;3.85;;;1.63;;
10440;SDS011;5268;49.346;9.522;2022-10-16T14:26:05;1.60;;;1.50;;
10440;SDS011;5268;49.346;9.522;2022-10-16T14:31:22;2.17;;;1.42;;
10440;SDS011;5268;49.346;9.522;2022-10-16T14:36:28;5.32;;;1.70;;
10440;SDS011;5268;49.346;9.522;2022-10-16T14:41:32;2.80;;;1.55;;
10440;SDS011;5268;49.346;9.522;2022-10-16T14:46:41;3.65;;;1.42;;
10440;SDS011;5268;49.346;9.522;2022-10-16T14:51:46;3.75;;;1.40;;
10440;SDS011;5268;49.346;9.522;2022-10-16T14:56:49;2.70;;;1.92;;
10440;SDS011;5268;49.346;9.522;2022-10-16T15:01:53;5.78;;;2.72;;
10440;SDS011;5268;49.346;9.522;2022-10-16T15:06:56;3.22;;;2.40;;
10440;SDS011;5268;49.346;9.522;2022-10-16T15:11:58;5.28;;;1.90;;
10440;SDS011;5268;49.346;9.522;2022-10-16T15:17:00;5.50;;;2.00;;
10440;SDS011;5268;49.346;9.522;2022-10-16T15:22:03;9.02;;;4.38;;
10440;SDS011;5268;49.346;9.522;2022-10-16T15:27:05;3.22;;;1.60;;
10440;SDS011;5268;49.346;9.522;2022-10-16T15:32:08;4.63;;;1.60;;
10440;SDS011;5268;49.346;9.522;2022-10-16T15:37:12;4.20;;;1.70;;
10440;SDS011;5268;49.346;9.522;2022-10-16T15:42:14;5.85;;;2.00;;
10440;SDS011;5268;49.346;9.522;2022-10-16T15:47:16;8.57;;;2.63;;
10440;SDS011;5268;49.346;9.522;2022-10-16T15:52:19;6.78;;;2.20;;
10440;SDS011;5268;49.346;9.522;2022-10-16T15:57:21;7.00;;;2.85;;
10440;SDS011;5268;49.346;9.522;2022-10-16T16:02:23;4.50;;;2.10;;
10440;SDS011;5268;49.346;9.522;2022-10-16T16:07:27;6.95;;;2.38;;
10440;SDS011;5268;49.346;9.522;2022-10-16T16:12:29;6.10;;;2.60;;
10440;SDS011;5268;49.346;9.522;2022-10-16T16:17:31;7.05;;;2.88;;
10440;SDS011;5268;49.346;9.522;2022-10-16T16:22:34;3.60;;;2.33;;
10440;SDS011;5268;49.346;9.522;2022-10-16T16:27:36;4.35;;;2.40;;
10440;SDS011;5268;49.346;9.522;2022-10-16T16:32:38;5.10;;;2.20;;
10440;SDS011;5268;49.346;9.522;2022-10-16T16:37:42;4.80;;;1.92;;
10440;SDS011;5268;49.346;9.522;2022-10-16T16:42:44;3.92;;;2.10;;
10440;SDS011;5268;49.346;9.522;2022-10-16T16:47:48;5.53;;;1.90;;
10440;SDS011;5268;49.346;9.522;2022-10-16T16:52:51;6.63;;;2.00;;
10440;SDS011;5268;49.346;9.522;2022-10-16T16:57:53;7.00;;;3.50;;
10440;SDS011;5268;49.346;9.522;2022-10-16T17:02:56;9.32;;;3.83;;
10440;SDS011;5268;49.346;9.522;2022-10-16T17:08:00;8.73;;;2.95;;
10440;SDS011;5268;49.346;9.522;2022-10-16T17:13:02;6.88;;;2.70;;
10440;SDS011;5268;49.346;9.522;2022-10-16T17:18:04;4.13;;;2.20;;
10440;SDS011;5268;49.346;9.522;2022-10-16T17:23:07;7.88;;;3.00;;
10440;SDS011;5268;49.346;9.522;2022-10-16T17:28:10;6.07;;;3.30;;
10440;SDS011;5268;49.346;9.522;2022-10-16T17:33:12;5.82;;;2.47;;
10440;SDS011;5268;49.346;9.522;2022-10-16T17:38:16;5.85;;;2.60;;
10440;SDS011;5268;49.346;9.522;2022-10-16T17:43:18;4.85;;;2.63;;
10440;SDS011;5268;49.346;9.522;2022-10-16T17:48:20;3.38;;;2.20;;
10440;SDS011;5268;49.346;9.522;2022-10-16T17:53:24;3.75;;;2.30;;
10440;SDS011;5268;49.346;9.522;2022-10-16T17:58:26;4.40;;;2.50;;
10440;SDS011;5268;49.346;9.522;2022-10-16T18:03:28;4.32;;;2.15;;
10440;SDS011;5268;49.346;9.522;2022-10-16T18:08:32;3.97;;;2.38;;
10440;SDS011;5268;49.346;9.522;2022-10-16T18:13:36;5.03;;;2.25;;
10440;SDS011;5268;49.346;9.522;2022-10-16T18:18:40;5.22;;;2.35;;
10440;SDS011;5268;49.346;9.522;2022-10-16T18:23:45;3.35;;;2.25;;
10440;SDS011;5268;49.346;9.522;2022-10-16T18:28:47;6.45;;;2.30;;
10440;SDS011;5268;49.346;9.522;2022-10-16T18:33:52;5.45;;;2.80;;
10440;SDS011;5268;49.346;9.522;2022-10-16T18:38:56;5.97;;;2.78;;
10440;SDS011;5268;49.346;9.522;2022-10-16T18:43:59;4.53;;;2.30;;
10440;SDS011;5268;49.346;9.522;2022-10-16T18:49:02;6.05;;;2.10;;
10440;SDS011;5268;49.346;9.522;2022-10-16T18:54:06;4.57;;;2.08;;
10440;SDS011;5268;49.346;9.522;2022-10-16T18:59:10;3.08;;;2.45;;
10440;SDS011;5268;49.346;9.522;2022-10-16T19:04:12;6.78;;;2.40;;
10440;SDS011;5268;49.346;9.522;2022-10-16T19:09:18;5.03;;;2.90;;
10440;SDS011;5268;49.346;9.522;2022-10-16T19:14:21;5.35;;;2.40;;
10440;SDS011;5268;49.346;9.522;2022-10-16T19:19:24;4.03;;;2.97;;
10440;SDS011;5268;49.346;9.522;2022-10-16T19:24:27;4.97;;;2.78;;
10440;SDS011;5268;49.346;9.522;2022-10-16T19:29:29;10.10;;;3.30;;
10440;SDS011;5268;49.346;9.522;2022-10-16T19:34:31;11.90;;;2.88;;
10440;SDS011;5268;49.346;9.522;2022-10-16T19:39:35;5.03;;;2.70;;
10440;SDS011;5268;49.346;9.522;2022-10-16T19:44:37;9.30;;;3.00;;
10440;SDS011;5268;49.346;9.522;2022-10-16T19:49:39;4.20;;;2.50;;
10440;SDS011;5268;49.346;9.522;2022-10-16T19:54:42;7.82;;;2.80;;
10440;SDS011;5268;49.346;9.522;2022-10-16T19:59:44;7.97;;;2.70;;
10440;SDS011;5268;49.346;9.522;2022-10-16T20:04:46;5.07;;;3.15;;
10440;SDS011;5268;49.346;9.522;2022-10-16T20:09:49;4.70;;;2.65;;
10440;SDS011;5268;49.346;9.522;2022-10-16T20:14:51;7.70;;;2.80;;
10440;SDS011;5268;49.346;9.522;2022-10-16T20:19:53;10.43;;;2.83;;
10440;SDS011;5268;49.346;9.522;2022-10-16T20:24:57;4.78;;;2.63;;
10440;SDS011;5268;49.346;9.522;2022-10-16T20:29:59;7.25;;;3.28;;
10440;SDS011;5268;49.346;9.522;2022-10-16T20:35:01;10.95;;;3.78;;
10440;SDS011;5268;49.346;9.522;2022-10-16T20:40:05;5.00;;;2.90;;
10440;SDS011;5268;49.346;9.522;2022-10-16T20:45:08;8.60;;;3.10;;
10440;SDS011;5268;49.346;9.522;2022-10-16T20:50:10;13.07;;;3.80;;
10440;SDS011;5268;49.346;9.522;2022-10-16T20:55:15;9.65;;;3.50;;
10440;SDS011;5268;49.346;9.522;2022-10-16T21:00:17;6.75;;;3.00;;
10440;SDS011;5268;49.346;9.522;2022-10-16T21:05:19;9.75;;;4.05;;
10440;SDS011;5268;49.346;9.522;2022-10-16T21:10:23;8.32;;;4.28;;
10440;SDS011;5268;49.346;9.522;2022-10-16T21:15:25;6.90;;;3.83;;
10440;SDS011;5268;49.346;9.522;2022-10-16T21:20:27;7.95;;;3.35;;
10440;SDS011;5268;49.346;9.522;2022-10-16T21:25:30;8.80;;;3.42;;
